Data for 08/17/2016

Time Sea-Level Adjusted Pressure Absolute Pressure Temperature Relative Humidity Dew Point   
(mb) (inHg) (mb) (inHg) (C) (F) (%) (C) (F)
00:05 1021 30.15 850 25.1 20.8 69.4 29 2.3 36.1
00:10 1021 30.15 850 25.1 21.3 70.3 30 3.3 38
00:15 1021 30.15 850 25.1 20.8 69.4 31 3.3 37.9
00:20 1021 30.15 850 25.1 20.8 69.4 30 2.9 37.2
00:25 1021 30.15 850 25.1 20.1 68.2 32 3.2 37.7
00:30 1021 30.15 850 25.1 19.5 67.1 35 3.9 39
00:35 1021 30.15 850 25.1 19.2 66.6 37 4.2 39.6
00:40 1021 30.15 850 25.1 19.5 67.1 31 2.3 36.1
00:45 1021 30.15 850 25.1 19.7 67.4 31 2.4 36.3
00:50 1021 30.15 850 25.1 19.6 67.3 33 2.9 37.2
00:55 1021 30.15 850 25.1 19.3 66.8 34 3.1 37.6
01:00 1021 30.15 850 25.1 18.9 66.1 35 3.2 37.8
01:05 1021 30.15 850 25.1 18.7 65.7 37 3.7 38.7
01:10 1021 30.15 850 25.1 18.7 65.6 34 2.8 37
01:15 1021 30.15 850 25.1 19 66.2 34 2.9 37.3
01:20 1021 30.15 850 25.1 19 66.2 35 3.3 37.9
01:25 1021 30.15 850 25.1 18.9 66.1 35 3.3 38
01:30 1021 30.15 850 25.1 18.8 65.8 36 3.5 38.4
01:35 1021 30.15 850 25.1 18.5 65.3 36 3.3 37.9
01:40 1021 30.15 850 25.1 18.3 64.9 35 2.8 37.1
01:45 1021 30.15 850 25.1 18.3 64.9 35 2.7 36.9
01:50 1021 30.15 850 25.1 18.4 65.2 35 2.7 36.9
01:55 1021 30.15 850 25.1 18.8 65.9 33 2.3 36.1
02:00 1021 30.15 850 25.1 19.3 66.7 32 2.4 36.4
02:05 1021 30.15 850 25.1 19.3 66.7 32 2.3 36.1
02:10 1021 30.15 850 25.1 19.3 66.7 32 2.4 36.4
02:15 1021 30.15 850 25.1 19.1 66.4 33 2.8 37
02:20 1021 30.15 850 25.1 18.8 65.9 34 2.9 37.2
02:25 1021 30.15 850 25.1 18.4 65 36 3.1 37.6
02:30 1021 30.15 850 25.1 18.1 64.6 34 2.2 36
02:35 1021 30.15 850 25.1 18.1 64.6 35 2.6 36.6
02:40 1021 30.15 850 25.1 17.6 63.8 36 2.7 36.8
02:45 1021 30.15 850 25.1 17.5 63.6 36 2.3 36.1
02:50 1021 30.15 850 25.1 18 64.4 37 3.2 37.8
02:55 1021 30.15 850 25.1 17.8 64 36 2.6 36.7
03:00 1021 30.15 850 25.1 17.7 63.9 34 1.7 35.1
03:05 1021 30.15 850 25.1 17.6 63.6 36 2.4 36.3
03:10 1021 30.15 850 25.1 17.2 62.9 37 2.6 36.6
03:15 1021 30.15 850 25.1 17.5 63.4 35 2 35.6
03:20 1021 30.15 850 25.1 17.7 63.8 36 2.6 36.7
03:25 1021 30.15 850 25.1 17.3 63.2 39 3.4 38
03:30 1021 30.15 850 25.1 17 62.6 38 2.6 36.8
03:35 1021 30.15 850 25.1 17.1 62.7 37 2.4 36.2
03:40 1021 30.15 850 25.1 17.1 62.7 37 2.3 36.2
03:45 1021 30.15 850 25.1 16.9 62.4 37 2.3 36.1
03:50 1021 30.15 850 25.1 17 62.7 36 2.1 35.8
03:55 1021 30.15 850 25.1 17.3 63.1 36 2.2 36
04:00 1021 30.15 850 25.1 17.4 63.2 37 2.6 36.6
04:05 1021 30.15 850 25.1 17.3 63.1 35 1.6 34.9
04:10 1021 30.15 850 25.1 17.3 63.1 33 1.1 33.9
04:15 1021 30.15 850 25.1 17.5 63.5 34 1.4 34.6
04:20 1021 30.15 850 25.1 17.3 63.1 35 2 35.6
04:25 1021 30.15 850 25.1 17.1 62.8 36 2.2 36
04:30 1021 30.15 850 25.1 17 62.7 36 1.9 35.4
04:35 1021 30.15 850 25.1 17.1 62.8 35 1.6 34.9
04:40 1021 30.15 850 25.1 17.1 62.7 35 1.8 35.2
04:45 1021 30.15 850 25.1 16.8 62.3 36 1.9 35.5
04:50 1021 30.15 850 25.1 16.7 62.1 37 1.9 35.4
04:55 1021 30.15 850 25.1 16.8 62.2 36 1.9 35.4
05:00 1021 30.15 850 25.1 16.8 62.2 36 1.9 35.4
05:05 1021 30.15 850 25.1 16.8 62.3 36 1.8 35.2
05:10 1021 30.15 850 25.1 16.7 62.1 36 1.7 35.1
05:15 1021 30.15 850 25.1 16.8 62.2 34 0.8 33.5
05:20 1021 30.15 850 25.1 17 62.6 33 0.8 33.5
05:25 1021 30.15 850 25.1 17.3 63.1 34 1.2 34.2
05:30 1021 30.15 850 25.1 17.4 63.3 33 1.2 34.2
05:35 1021 30.15 850 25.1 17.8 64.1 32 0.9 33.6
05:40 1021 30.15 850 25.1 18 64.3 32 1.2 34.2
05:45 1021 30.15 850 25.1 17.5 63.5 32 0.8 33.5
05:50 1021 30.15 850 25.1 17.3 63.2 33 0.9 33.7
05:55 1021 30.15 850 25.1 17.3 63.1 33 1.2 34.2
06:00 1021 30.15 850 25.1 17.3 63.1 34 1.4 34.4
06:05 1021 30.15 850 25.1 17.3 63.1 33 1 33.7
06:10 1021 30.15 850 25.1 17.3 63.1 34 1.2 34.2
06:15 1021 30.15 850 25.1 17.3 63.1 33 1 33.8
06:20 1021 30.15 850 25.1 17.3 63.1 33 0.9 33.6
06:25 1021 30.15 850 25.1 17.3 63.1 33 0.8 33.5
06:30 1021 30.15 850 25.1 17.4 63.2 32 0.8 33.5
06:35 1021 30.15 850 25.1 17.5 63.5 32 0.9 33.7
06:40 1021 30.15 851 25.13 17.7 63.8 31 0.5 32.8
06:45 1021 30.15 851 25.13 18.1 64.5 32 1.4 34.5
06:50 1021 30.15 851 25.13 18.5 65.3 30 0.8 33.5
06:55 1022 30.18 851 25.13 18.9 65.9 29 0.6 33.1
07:00 1022 30.18 851 25.13 18.8 65.8 31 1.3 34.3
07:05 1022 30.18 851 25.13 18.5 65.3 30 0.8 33.5
07:10 1022 30.18 851 25.13 18.4 65.1 30 0.6 33.1
07:15 1022 30.18 851 25.13 18.6 65.5 30 0.7 33.3
07:20 1022 30.18 851 25.13 18.7 65.6 31 1.2 34.1
07:25 1022 30.18 851 25.13 18.7 65.7 31 1.3 34.4
07:30 1022 30.18 851 25.13 18.8 65.9 31 1.4 34.6
07:35 1022 30.18 851 25.13 18.9 66 33 2.4 36.3
07:40 1022 30.18 851 25.13 19 66.2 36 3.6 38.5
07:45 1022 30.18 851 25.13 18.9 66 37 4 39.1
07:50 1022 30.18 851 25.13 18.9 66 36 3.5 38.3
07:55 1022 30.18 851 25.13 19.4 66.9 32 2.5 36.5
08:00 1022 30.18 851 25.13 20 67.9 30 2.2 35.9
08:05 1022 30.18 851 25.13 20.3 68.5 30 2.6 36.6
08:10 1022 30.18 851 25.13 20.1 68.2 31 2.7 36.8
08:15 1022 30.18 851 25.13 20 68.1 31 2.6 36.7
08:20 1022 30.18 851 25.13 20.5 68.9 29 2 35.6
08:25 1022 30.18 851 25.13 21.5 70.6 28 2.2 36
08:30 1022 30.18 851 25.13 22 71.6 28 2.6 36.8
08:35 1022 30.18 851 25.13 22.1 71.8 28 3.2 37.8
08:40 1022 30.18 851 25.13 22.6 72.8 25 2 35.6
08:45 1022 30.18 851 25.13 23.3 73.9 25 2.6 36.7
08:50 1022 30.18 851 25.13 23.1 73.5 27 3.4 38.1
08:55 1022 30.18 851 25.13 22.6 72.7 25 2 35.6
09:00 1022 30.18 851 25.13 22.9 73.2 24 1.7 35
09:05 1022 30.18 851 25.13 23 73.3 25 2.1 35.8
09:10 1022 30.18 851 25.13 22.7 72.9 24 1.6 34.8
09:15 1022 30.18 851 25.13 23.3 74 24 1.7 35
09:20 1022 30.18 851 25.13 23.5 74.3 22 1 33.9
09:25 1022 30.18 851 25.13 24.2 75.5 22 1.6 34.9
09:30 1022 30.18 851 25.13 23.7 74.6 24 2.3 36.1
09:35 1022 30.18 851 25.13 23.4 74.1 25 2.5 36.5
09:40 1022 30.18 851 25.13 23.9 74.9 22 1.3 34.3
09:45 1022 30.18 851 25.13 24.4 76 22 1.7 35.1
09:50 1022 30.18 851 25.13 24.4 76 22 1.7 35
09:55 1022 30.18 851 25.13 24.7 76.4 21 1.4 34.5
10:00 1022 30.18 851 25.13 25.5 77.8 21 1.8 35.2
10:05 1022 30.18 851 25.13 26 78.8 20 1.8 35.2
10:10 1022 30.18 851 25.13 25.7 78.3 22 2.6 36.7
10:15 1022 30.18 851 25.13 25.8 78.5 22 2.8 37
10:20 1022 30.18 851 25.13 26.5 79.7 20 1.9 35.5
10:25 1022 30.18 851 25.13 26.8 80.3 20 2.4 36.3
10:30 1021 30.15 851 25.13 26.7 80 19 1.5 34.6
10:35 1021 30.15 851 25.13 26.7 80.1 20 2 35.6
10:40 1021 30.15 851 25.13 27 80.5 18 1.2 34.1
10:45 1021 30.15 851 25.13 27.4 81.4 19 2 35.6
10:50 1021 30.15 851 25.13 27.6 81.7 19 2 35.6
10:55 1021 30.15 851 25.13 27.4 81.3 18 1.6 34.9
11:00 1021 30.15 851 25.13 27.1 80.7 19 1.7 35.1
11:05 1021 30.15 850 25.1 27.9 82.1 18 1.9 35.4
11:10 1021 30.15 850 25.1 28 82.4 17 1.4 34.4
11:15 1021 30.15 850 25.1 27.6 81.8 19 2.1 35.7
11:20 1021 30.15 850 25.1 27.6 81.6 19 2.3 36.2
11:25 1021 30.15 850 25.1 28.5 83.2 17 1 33.7
11:30 1021 30.15 850 25.1 28.4 83.1 18 1.9 35.4
11:35 1021 30.15 850 25.1 28.7 83.6 16 0.3 32.5
11:40 1021 30.15 850 25.1 29 84.2 15 -0.2 31.6
11:45 1021 30.15 850 25.1 29.5 85.2 15 0.6 33.2
11:50 1021 30.15 850 25.1 29.4 85 14 -0.3 31.4
11:55 1021 30.15 850 25.1 29.1 84.5 14 -0.3 31.5
12:00 1021 30.15 850 25.1 29.2 84.5 14 -0.8 30.5
12:05 1021 30.15 850 25.1 29.2 84.6 15 -0.2 31.7
12:10 1021 30.15 850 25.1 29.3 84.7 14 -1.1 30.1
12:15 1021 30.15 850 25.1 28.4 83 15 -0.1 31.8
12:20 1021 30.15 850 25.1 28.8 83.9 15 0.1 32.2
12:25 1020 30.12 850 25.1 29.4 84.8 14 -0.3 31.4
12:30 1020 30.12 850 25.1 29.7 85.4 14 -0.4 31.3
12:35 1020 30.12 850 25.1 29.9 85.8 14 0.2 32.4
12:40 1020 30.12 850 25.1 30.5 86.9 14 0.3 32.5
12:45 1020 30.12 849 25.07 30.5 87 14 0.1 32.1
12:50 1020 30.12 849 25.07 30.5 86.9 13 -0.4 31.3
12:55 1020 30.12 849 25.07 30.4 86.6 13 -0.8 30.6
13:00 1020 30.12 849 25.07 30.8 87.5 13 -0.7 30.7
13:05 1020 30.12 849 25.07 30.9 87.6 13 -0.8 30.6
13:10 1020 30.12 849 25.07 31.3 88.3 13 0.1 32.2
13:15 1020 30.12 849 25.07 31.8 89.2 11 -1.6 29.1
13:20 1020 30.12 849 25.07 31.5 88.7 12 -0.8 30.5
13:25 1020 30.12 849 25.07 31.6 89 12 -0.9 30.4
13:30 1020 30.12 849 25.07 31.5 88.7 12 -0.5 31
13:35 1020 30.12 849 25.07 31.7 89 12 -0.4 31.3
13:40 1020 30.12 849 25.07 31.4 88.4 12 -0.6 30.9
13:45 1020 30.12 849 25.07 31.2 88.2 12 -1.2 29.9
13:50 1020 30.12 849 25.07 31.5 88.7 12 -0.7 30.7
13:55 1020 30.12 849 25.07 31.6 88.9 12 -1 30.2
14:00 1020 30.12 849 25.07 31.5 88.6 12 -1.1 30
14:05 1020 30.12 849 25.07 31.3 88.4 11 -2.1 28.2
14:10 1020 30.12 849 25.07 31 87.8 13 -0.4 31.3
14:15 1020 30.12 849 25.07 31.4 88.4 12 -1.3 29.7
14:20 1020 30.12 849 25.07 31.5 88.6 12 -1.2 29.8
14:25 1019 30.09 849 25.07 30.6 87.1 12 -1.8 28.8
14:30 1019 30.09 849 25.07 30.9 87.6 12 -1.4 29.4
14:35 1019 30.09 849 25.07 31.2 88.1 12 -1.3 29.7
14:40 1019 30.09 849 25.07 31.2 88.1 13 -0.6 30.8
14:45 1019 30.09 849 25.07 31.5 88.6 12 -0.7 30.8
14:50 1019 30.09 849 25.07 31.3 88.3 12 -1.1 30
14:55 1019 30.09 849 25.07 31.2 88.2 12 -1.7 29
15:00 1019 30.09 848 25.04 31.3 88.3 12 -1.6 29.1
15:05 1019 30.09 848 25.04 31.3 88.3 11 -2.2 28.1
15:10 1019 30.09 848 25.04 31.7 89 11 -2.4 27.6
15:15 1019 30.09 848 25.04 31.3 88.3 11 -2.4 27.7
15:20 1019 30.09 848 25.04 31.4 88.6 11 -2.8 27
15:25 1019 30.09 848 25.04 31.3 88.4 11 -2.7 27.1
15:30 1019 30.09 848 25.04 30.7 87.3 11 -2.9 26.8
15:35 1019 30.09 848 25.04 30.6 87.1 11 -3 26.6
15:40 1019 30.09 848 25.04 30.9 87.6 11 -2.1 28.2
15:45 1019 30.09 848 25.04 30.9 87.7 11 -3.1 26.4
15:50 1019 30.09 848 25.04 31.2 88.1 10 -3.3 26
15:55 1019 30.09 848 25.04 31.7 89 11 -2.6 27.3
16:00 1019 30.09 848 25.04 31.9 89.5 11 -2 28.4
16:05 1019 30.09 848 25.04 31.8 89.3 11 -1.5 29.3
16:10 1019 30.09 848 25.04 31.3 88.3 11 -2.6 27.3
16:15 1019 30.09 848 25.04 30.5 86.9 10 -4.1 24.6
16:20 1019 30.09 848 25.04 30.1 86.2 11 -3.7 25.3
16:25 1019 30.09 848 25.04 31 87.8 11 -2.9 26.9
16:30 1019 30.09 848 25.04 31.2 88.2 10 -3.4 25.8
16:35 1019 30.09 848 25.04 30.7 87.3 10 -3.6 25.6
16:40 1019 30.09 848 25.04 30.6 87.1 9 -4.9 23.2
16:45 1019 30.09 848 25.04 30.2 86.4 10 -4.3 24.3
16:50 1019 30.09 848 25.04 30.6 87.2 10 -4.3 24.2
16:55 1019 30.09 848 25.04 30.5 86.8 11 -3.1 26.4
17:00 1019 30.09 848 25.04 30.6 87 11 -2.8 27
17:05 1019 30.09 848 25.04 31 87.7 11 -3 26.6
17:10 1019 30.09 848 25.04 30.4 86.8 11 -3.1 26.4
17:15 1019 30.09 848 25.04 30 86 11 -2.9 26.7
17:20 1019 30.09 848 25.04 30.1 86.2 11 -3.4 25.8
17:25 1019 30.09 848 25.04 29.9 85.8 12 -2.4 27.8
17:30 1019 30.09 848 25.04 30.2 86.3 12 -1.7 28.9
17:35 1019 30.09 848 25.04 30.1 86.1 12 -2.4 27.7
17:40 1019 30.09 848 25.04 30.1 86.2 12 -1.7 28.9
17:45 1019 30.09 848 25.04 30.3 86.6 12 -1.7 28.9
17:50 1019 30.09 848 25.04 30.2 86.4 12 -2.4 27.7
17:55 1019 30.09 848 25.04 30 86 12 -2.4 27.7
18:00 1019 30.09 848 25.04 29.7 85.4 13 -1.6 29.2
18:05 1019 30.09 848 25.04 29.5 85 12 -2.3 27.8
18:10 1019 30.09 848 25.04 29.4 84.8 15 0.5 32.8
18:15 1019 30.09 848 25.04 29.2 84.5 14 -0.9 30.3
18:20 1019 30.09 848 25.04 29.1 84.4 14 -0.6 31
18:25 1019 30.09 848 25.04 29.2 84.6 13 -1.6 29.1
18:30 1019 30.09 848 25.04 29.1 84.5 13 -1.7 28.9
18:35 1019 30.09 848 25.04 29.1 84.3 14 -1 30.3
18:40 1019 30.09 848 25.04 28.6 83.5 18 2 35.6
18:45 1019 30.09 848 25.04 27.3 81.1 18 1.1 34
18:50 1019 30.09 848 25.04 27.3 81.1 18 1.2 34.2
18:55 1019 30.09 848 25.04 27.2 80.9 18 1.2 34.2
19:00 1019 30.09 848 25.04 27.1 80.8 19 1.5 34.6
19:05 1019 30.09 848 25.04 26.9 80.5 19 1.7 35.1
19:10 1019 30.09 848 25.04 26.8 80.2 19 1.9 35.4
19:15 1019 30.09 848 25.04 26.6 79.9 20 2 35.6
19:20 1019 30.09 848 25.04 26.4 79.5 20 2.1 35.8
19:25 1019 30.09 848 25.04 26.3 79.3 20 2.1 35.8
19:30 1019 30.09 848 25.04 26.2 79.1 21 2.2 36
19:35 1019 30.09 848 25.04 26 78.8 21 2.2 35.9
19:40 1019 30.09 849 25.07 25.8 78.5 21 2.2 36
19:45 1019 30.09 849 25.07 25.8 78.4 21 2.3 36.1
19:50 1019 30.09 849 25.07 25.7 78.3 21 2.3 36.1
19:55 1020 30.12 849 25.07 25.6 78.1 22 2.5 36.5
20:00 1020 30.12 849 25.07 25.5 77.8 22 2.5 36.5
20:05 1020 30.12 849 25.07 25.4 77.6 23 2.7 36.9
20:10 1020 30.12 849 25.07 25.2 77.4 23 2.9 37.1
20:15 1020 30.12 849 25.07 25.1 77.1 23 2.8 37.1
20:20 1020 30.12 849 25.07 25.1 77.2 23 3 37.3
20:25 1020 30.12 849 25.07 25 76.9 24 3 37.4
20:30 1020 30.12 849 25.07 24.9 76.7 24 2.9 37.2
20:35 1020 30.12 849 25.07 24.8 76.7 24 3 37.4
20:40 1020 30.12 849 25.07 24.7 76.5 24 3 37.4
20:45 1020 30.12 849 25.07 24.6 76.3 24 3 37.4
20:50 1020 30.12 850 25.1 24.5 76.1 24 3.1 37.5
20:55 1020 30.12 850 25.1 24.4 75.9 25 3.1 37.6
21:00 1020 30.12 850 25.1 24.3 75.7 25 3 37.3
21:05 1020 30.12 850 25.1 24.3 75.8 24 2.8 37
21:10 1020 30.12 850 25.1 24.4 75.9 24 2.9 37.2
21:15 1021 30.15 850 25.1 24.3 75.7 24 2.8 37
21:20 1021 30.15 850 25.1 24.3 75.7 24 2.9 37.1
21:25 1021 30.15 850 25.1 24.3 75.7 24 2.8 37
21:30 1021 30.15 850 25.1 24.3 75.8 24 2.8 37
21:35 1021 30.15 850 25.1 24.4 75.9 24 2.9 37.2
21:40 1021 30.15 850 25.1 24.3 75.7 25 3 37.4
21:45 1021 30.15 850 25.1 24.1 75.4 25 3.1 37.5
21:50 1021 30.15 850 25.1 24 75.3 25 2.9 37.3
21:55 1022 30.18 851 25.13 24.2 75.5 25 2.9 37.2
22:00 1022 30.18 851 25.13 24.4 76 24 2.6 36.6
22:05 1022 30.18 851 25.13 24.7 76.5 26 4.2 39.5
22:10 1022 30.18 851 25.13 24.2 75.5 28 4.7 40.5
22:15 1022 30.18 851 25.13 23.5 74.3 28 4 39.2
22:20 1022 30.18 851 25.13 23.2 73.7 28 3.7 38.7
22:25 1022 30.18 851 25.13 23 73.5 29 4.3 39.8
22:30 1022 30.18 852 25.16 22.8 73.1 31 5 40.9
22:35 1022 30.18 852 25.16 22.3 72.1 36 6.6 43.8
22:40 1022 30.18 852 25.16 21.6 70.9 38 6.8 44.3
22:45 1023 30.21 852 25.16 21.3 70.3 39 6.9 44.5
22:50 1023 30.21 852 25.16 21 69.8 40 7.1 44.8
22:55 1023 30.21 852 25.16 20.7 69.3 41 7.2 44.9
23:00 1023 30.21 852 25.16 20.6 69 42 7.3 45.1
23:05 1023 30.21 852 25.16 20.5 69 42 7.3 45.2
23:10 1023 30.21 852 25.16 20.4 68.8 42 7.2 45
23:15 1023 30.21 852 25.16 20.3 68.6 43 7.4 45.3
23:20 1023 30.21 852 25.16 20.4 68.7 43 7.5 45.6
23:25 1023 30.21 852 25.16 20.3 68.5 45 8 46.4
23:30 1023 30.21 852 25.16 20.2 68.4 44 7.6 45.7
23:35 1023 30.21 852 25.16 20.3 68.5 43 7.3 45.1
23:40 1023 30.21 852 25.16 20.2 68.4 43 7.3 45.2
23:45 1023 30.21 852 25.16 20.1 68.2 44 7.7 45.8
23:50 1023 30.21 852 25.16 19.9 67.8 43 7.2 44.9
23:55 1023 30.21 852 25.16 20.2 68.3 40 6.4 43.6
24:00 1023 30.21 852 25.16 20.5 68.9 41 7.1 44.8